sensor_id;sensor_type;location;lat;lon;timestamp;P1;durP1;ratioP1;P2;durP2;ratioP2
26050;SDS011;13825;53.496;10.020;2023-04-28T00:00:22;11.93;;;6.77;;
26050;SDS011;13825;53.496;10.020;2023-04-28T00:02:49;10.30;;;6.20;;
26050;SDS011;13825;53.496;10.020;2023-04-28T00:05:16;10.20;;;6.50;;
26050;SDS011;13825;53.496;10.020;2023-04-28T00:07:44;11.67;;;7.00;;
26050;SDS011;13825;53.496;10.020;2023-04-28T00:10:11;11.33;;;6.53;;
26050;SDS011;13825;53.496;10.020;2023-04-28T00:12:39;15.43;;;6.70;;
26050;SDS011;13825;53.496;10.020;2023-04-28T00:15:07;13.17;;;6.87;;
26050;SDS011;13825;53.496;10.020;2023-04-28T00:17:34;12.07;;;6.70;;
26050;SDS011;13825;53.496;10.020;2023-04-28T00:20:01;10.70;;;6.43;;
26050;SDS011;13825;53.496;10.020;2023-04-28T00:22:29;11.63;;;7.00;;
26050;SDS011;13825;53.496;10.020;2023-04-28T00:24:56;9.47;;;6.03;;
26050;SDS011;13825;53.496;10.020;2023-04-28T00:27:23;12.43;;;6.80;;
26050;SDS011;13825;53.496;10.020;2023-04-28T00:29:52;12.27;;;6.17;;
26050;SDS011;13825;53.496;10.020;2023-04-28T00:32:19;14.27;;;6.60;;
26050;SDS011;13825;53.496;10.020;2023-04-28T00:34:47;11.47;;;6.13;;
26050;SDS011;13825;53.496;10.020;2023-04-28T00:37:14;10.63;;;7.40;;
26050;SDS011;13825;53.496;10.020;2023-04-28T00:39:41;10.07;;;6.17;;
26050;SDS011;13825;53.496;10.020;2023-04-28T00:42:11;11.60;;;6.03;;
26050;SDS011;13825;53.496;10.020;2023-04-28T00:44:38;10.50;;;6.30;;
26050;SDS011;13825;53.496;10.020;2023-04-28T00:47:06;12.50;;;6.97;;
26050;SDS011;13825;53.496;10.020;2023-04-28T00:49:34;12.53;;;7.17;;
26050;SDS011;13825;53.496;10.020;2023-04-28T00:52:03;13.27;;;6.53;;
26050;SDS011;13825;53.496;10.020;2023-04-28T00:54:31;10.07;;;6.37;;
26050;SDS011;13825;53.496;10.020;2023-04-28T00:56:58;10.03;;;6.00;;
26050;SDS011;13825;53.496;10.020;2023-04-28T00:59:27;12.90;;;6.67;;
26050;SDS011;13825;53.496;10.020;2023-04-28T01:01:54;11.03;;;5.93;;
26050;SDS011;13825;53.496;10.020;2023-04-28T01:04:23;13.80;;;6.40;;
26050;SDS011;13825;53.496;10.020;2023-04-28T01:06:50;15.60;;;6.73;;
26050;SDS011;13825;53.496;10.020;2023-04-28T01:09:18;11.17;;;6.60;;
26050;SDS011;13825;53.496;10.020;2023-04-28T01:11:45;12.80;;;7.47;;
26050;SDS011;13825;53.496;10.020;2023-04-28T01:14:12;12.97;;;6.43;;
26050;SDS011;13825;53.496;10.020;2023-04-28T01:16:40;14.70;;;7.73;;
26050;SDS011;13825;53.496;10.020;2023-04-28T01:19:07;12.27;;;6.57;;
26050;SDS011;13825;53.496;10.020;2023-04-28T01:21:40;13.63;;;6.57;;
26050;SDS011;13825;53.496;10.020;2023-04-28T01:24:08;14.17;;;6.93;;
26050;SDS011;13825;53.496;10.020;2023-04-28T01:26:35;12.73;;;6.50;;
26050;SDS011;13825;53.496;10.020;2023-04-28T01:29:02;12.47;;;6.37;;
26050;SDS011;13825;53.496;10.020;2023-04-28T01:31:30;11.17;;;6.10;;
26050;SDS011;13825;53.496;10.020;2023-04-28T01:33:56;12.03;;;7.43;;
26050;SDS011;13825;53.496;10.020;2023-04-28T01:36:24;10.47;;;6.40;;
26050;SDS011;13825;53.496;10.020;2023-04-28T01:38:51;12.47;;;6.60;;
26050;SDS011;13825;53.496;10.020;2023-04-28T01:41:19;11.90;;;7.30;;
26050;SDS011;13825;53.496;10.020;2023-04-28T01:43:46;12.07;;;6.87;;
26050;SDS011;13825;53.496;10.020;2023-04-28T01:46:13;13.70;;;7.23;;
26050;SDS011;13825;53.496;10.020;2023-04-28T01:48:40;13.00;;;6.13;;
26050;SDS011;13825;53.496;10.020;2023-04-28T01:51:06;12.07;;;6.43;;
26050;SDS011;13825;53.496;10.020;2023-04-28T01:53:33;10.77;;;5.77;;
26050;SDS011;13825;53.496;10.020;2023-04-28T01:56:00;12.97;;;6.40;;
26050;SDS011;13825;53.496;10.020;2023-04-28T01:58:28;10.60;;;6.37;;
26050;SDS011;13825;53.496;10.020;2023-04-28T02:00:55;12.03;;;6.07;;
26050;SDS011;13825;53.496;10.020;2023-04-28T02:03:22;12.23;;;6.30;;
26050;SDS011;13825;53.496;10.020;2023-04-28T02:05:49;11.07;;;6.73;;
26050;SDS011;13825;53.496;10.020;2023-04-28T02:08:16;13.03;;;6.57;;
26050;SDS011;13825;53.496;10.020;2023-04-28T02:10:43;15.80;;;7.20;;
26050;SDS011;13825;53.496;10.020;2023-04-28T02:13:10;11.67;;;5.83;;
26050;SDS011;13825;53.496;10.020;2023-04-28T02:15:40;12.20;;;5.70;;
26050;SDS011;13825;53.496;10.020;2023-04-28T02:18:07;12.50;;;7.10;;
26050;SDS011;13825;53.496;10.020;2023-04-28T02:20:34;11.37;;;6.60;;
26050;SDS011;13825;53.496;10.020;2023-04-28T02:23:00;10.27;;;6.33;;
26050;SDS011;13825;53.496;10.020;2023-04-28T02:25:27;9.43;;;5.83;;
26050;SDS011;13825;53.496;10.020;2023-04-28T02:27:54;10.60;;;5.70;;
26050;SDS011;13825;53.496;10.020;2023-04-28T02:30:23;10.40;;;6.13;;
26050;SDS011;13825;53.496;10.020;2023-04-28T02:32:51;11.57;;;6.43;;
26050;SDS011;13825;53.496;10.020;2023-04-28T02:35:18;10.77;;;5.73;;
26050;SDS011;13825;53.496;10.020;2023-04-28T02:37:46;12.40;;;6.10;;
26050;SDS011;13825;53.496;10.020;2023-04-28T02:40:13;9.63;;;6.03;;
26050;SDS011;13825;53.496;10.020;2023-04-28T02:42:40;13.13;;;6.60;;
26050;SDS011;13825;53.496;10.020;2023-04-28T02:45:07;9.83;;;6.10;;
26050;SDS011;13825;53.496;10.020;2023-04-28T02:47:34;9.57;;;5.83;;
26050;SDS011;13825;53.496;10.020;2023-04-28T02:50:03;12.53;;;6.27;;
26050;SDS011;13825;53.496;10.020;2023-04-28T02:52:31;8.90;;;5.60;;
26050;SDS011;13825;53.496;10.020;2023-04-28T02:54:58;11.87;;;6.50;;
26050;SDS011;13825;53.496;10.020;2023-04-28T02:57:27;12.63;;;7.30;;
26050;SDS011;13825;53.496;10.020;2023-04-28T02:59:55;9.97;;;5.93;;
26050;SDS011;13825;53.496;10.020;2023-04-28T03:02:22;10.20;;;5.97;;
26050;SDS011;13825;53.496;10.020;2023-04-28T03:04:49;12.23;;;6.10;;
26050;SDS011;13825;53.496;10.020;2023-04-28T03:07:17;11.63;;;6.30;;
26050;SDS011;13825;53.496;10.020;2023-04-28T03:09:45;9.87;;;5.97;;
26050;SDS011;13825;53.496;10.020;2023-04-28T03:12:12;11.53;;;6.30;;
26050;SDS011;13825;53.496;10.020;2023-04-28T03:14:39;10.77;;;5.87;;
26050;SDS011;13825;53.496;10.020;2023-04-28T03:17:07;13.70;;;6.40;;
26050;SDS011;13825;53.496;10.020;2023-04-28T03:19:34;10.30;;;6.23;;
26050;SDS011;13825;53.496;10.020;2023-04-28T03:22:01;10.67;;;6.37;;
26050;SDS011;13825;53.496;10.020;2023-04-28T03:24:29;11.13;;;6.60;;
26050;SDS011;13825;53.496;10.020;2023-04-28T03:26:56;10.47;;;5.80;;
26050;SDS011;13825;53.496;10.020;2023-04-28T03:29:24;10.93;;;6.93;;
26050;SDS011;13825;53.496;10.020;2023-04-28T03:31:51;12.43;;;6.13;;
26050;SDS011;13825;53.496;10.020;2023-04-28T03:34:18;11.13;;;5.97;;
26050;SDS011;13825;53.496;10.020;2023-04-28T03:36:45;11.73;;;6.40;;
26050;SDS011;13825;53.496;10.020;2023-04-28T03:39:13;11.63;;;6.27;;
26050;SDS011;13825;53.496;10.020;2023-04-28T03:41:41;11.00;;;6.33;;
26050;SDS011;13825;53.496;10.020;2023-04-28T03:44:09;10.70;;;6.27;;
26050;SDS011;13825;53.496;10.020;2023-04-28T03:46:36;10.63;;;5.90;;
26050;SDS011;13825;53.496;10.020;2023-04-28T03:49:04;9.33;;;5.33;;
26050;SDS011;13825;53.496;10.020;2023-04-28T03:51:31;12.20;;;6.33;;
26050;SDS011;13825;53.496;10.020;2023-04-28T03:53:59;12.17;;;6.17;;
26050;SDS011;13825;53.496;10.020;2023-04-28T03:56:26;14.40;;;7.00;;
26050;SDS011;13825;53.496;10.020;2023-04-28T03:58:54;10.70;;;6.03;;
26050;SDS011;13825;53.496;10.020;2023-04-28T04:01:21;12.33;;;6.23;;
26050;SDS011;13825;53.496;10.020;2023-04-28T04:03:49;9.83;;;5.73;;
26050;SDS011;13825;53.496;10.020;2023-04-28T04:06:16;13.33;;;6.67;;
26050;SDS011;13825;53.496;10.020;2023-04-28T04:08:43;10.40;;;5.93;;
26050;SDS011;13825;53.496;10.020;2023-04-28T04:11:11;12.97;;;6.47;;
26050;SDS011;13825;53.496;10.020;2023-04-28T04:13:38;13.07;;;5.90;;
26050;SDS011;13825;53.496;10.020;2023-04-28T04:16:07;11.67;;;5.97;;
26050;SDS011;13825;53.496;10.020;2023-04-28T04:18:34;10.90;;;6.43;;
26050;SDS011;13825;53.496;10.020;2023-04-28T04:21:01;11.87;;;6.30;;
26050;SDS011;13825;53.496;10.020;2023-04-28T04:23:28;12.43;;;6.40;;
26050;SDS011;13825;53.496;10.020;2023-04-28T04:25:55;11.53;;;5.80;;
26050;SDS011;13825;53.496;10.020;2023-04-28T04:28:22;10.80;;;5.93;;
26050;SDS011;13825;53.496;10.020;2023-04-28T04:30:50;12.17;;;5.53;;
26050;SDS011;13825;53.496;10.020;2023-04-28T04:33:18;10.03;;;5.97;;
26050;SDS011;13825;53.496;10.020;2023-04-28T04:35:45;11.57;;;5.73;;
26050;SDS011;13825;53.496;10.020;2023-04-28T04:38:13;9.77;;;6.00;;
26050;SDS011;13825;53.496;10.020;2023-04-28T04:40:40;9.83;;;5.87;;
26050;SDS011;13825;53.496;10.020;2023-04-28T04:43:07;12.47;;;5.63;;
26050;SDS011;13825;53.496;10.020;2023-04-28T04:45:34;10.33;;;5.77;;
26050;SDS011;13825;53.496;10.020;2023-04-28T04:48:02;10.27;;;5.27;;
26050;SDS011;13825;53.496;10.020;2023-04-28T04:50:30;10.03;;;5.37;;
26050;SDS011;13825;53.496;10.020;2023-04-28T04:52:57;10.43;;;5.80;;
26050;SDS011;13825;53.496;10.020;2023-04-28T04:55:25;7.67;;;5.17;;
26050;SDS011;13825;53.496;10.020;2023-04-28T04:57:52;11.23;;;6.20;;
26050;SDS011;13825;53.496;10.020;2023-04-28T05:00:19;10.77;;;5.90;;
26050;SDS011;13825;53.496;10.020;2023-04-28T05:02:47;8.93;;;4.97;;
26050;SDS011;13825;53.496;10.020;2023-04-28T05:05:14;9.90;;;5.20;;
26050;SDS011;13825;53.496;10.020;2023-04-28T05:07:42;9.17;;;5.27;;
26050;SDS011;13825;53.496;10.020;2023-04-28T05:10:10;10.37;;;5.23;;
26050;SDS011;13825;53.496;10.020;2023-04-28T05:12:37;11.90;;;5.27;;
26050;SDS011;13825;53.496;10.020;2023-04-28T05:15:04;9.40;;;4.93;;
26050;SDS011;13825;53.496;10.020;2023-04-28T05:17:32;10.27;;;5.43;;
26050;SDS011;13825;53.496;10.020;2023-04-28T05:19:59;7.23;;;4.70;;
26050;SDS011;13825;53.496;10.020;2023-04-28T05:22:26;8.13;;;4.97;;
26050;SDS011;13825;53.496;10.020;2023-04-28T05:24:56;9.87;;;5.53;;
26050;SDS011;13825;53.496;10.020;2023-04-28T05:27:23;9.30;;;5.00;;
26050;SDS011;13825;53.496;10.020;2023-04-28T05:29:50;7.57;;;4.43;;
26050;SDS011;13825;53.496;10.020;2023-04-28T05:32:17;7.07;;;4.43;;
26050;SDS011;13825;53.496;10.020;2023-04-28T05:34:43;9.17;;;5.27;;
26050;SDS011;13825;53.496;10.020;2023-04-28T05:37:10;6.37;;;4.33;;
26050;SDS011;13825;53.496;10.020;2023-04-28T05:39:37;11.07;;;5.23;;
26050;SDS011;13825;53.496;10.020;2023-04-28T05:42:05;11.07;;;5.20;;
26050;SDS011;13825;53.496;10.020;2023-04-28T05:44:32;8.40;;;5.03;;
26050;SDS011;13825;53.496;10.020;2023-04-28T05:46:59;8.23;;;5.23;;
26050;SDS011;13825;53.496;10.020;2023-04-28T05:49:26;9.03;;;4.93;;
26050;SDS011;13825;53.496;10.020;2023-04-28T05:51:53;8.90;;;4.77;;
26050;SDS011;13825;53.496;10.020;2023-04-28T05:54:21;6.27;;;4.13;;
26050;SDS011;13825;53.496;10.020;2023-04-28T05:56:48;7.20;;;4.40;;
26050;SDS011;13825;53.496;10.020;2023-04-28T05:59:17;6.20;;;3.90;;
26050;SDS011;13825;53.496;10.020;2023-04-28T06:01:43;10.90;;;5.17;;
26050;SDS011;13825;53.496;10.020;2023-04-28T06:04:10;6.57;;;3.90;;
26050;SDS011;13825;53.496;10.020;2023-04-28T06:06:37;6.73;;;4.57;;
26050;SDS011;13825;53.496;10.020;2023-04-28T06:09:04;6.77;;;4.00;;
26050;SDS011;13825;53.496;10.020;2023-04-28T06:11:31;6.83;;;3.60;;
26050;SDS011;13825;53.496;10.020;2023-04-28T06:13:58;5.97;;;3.10;;
26050;SDS011;13825;53.496;10.020;2023-04-28T06:16:27;5.37;;;3.43;;
26050;SDS011;13825;53.496;10.020;2023-04-28T06:18:54;5.10;;;3.30;;
26050;SDS011;13825;53.496;10.020;2023-04-28T06:21:21;5.87;;;4.00;;
26050;SDS011;13825;53.496;10.020;2023-04-28T06:23:49;5.83;;;3.10;;
26050;SDS011;13825;53.496;10.020;2023-04-28T06:26:15;12.37;;;4.73;;
26050;SDS011;13825;53.496;10.020;2023-04-28T06:28:42;5.17;;;3.80;;
26050;SDS011;13825;53.496;10.020;2023-04-28T06:31:09;4.87;;;3.13;;
26050;SDS011;13825;53.496;10.020;2023-04-28T06:33:38;6.77;;;3.97;;
26050;SDS011;13825;53.496;10.020;2023-04-28T06:36:05;6.10;;;3.17;;
26050;SDS011;13825;53.496;10.020;2023-04-28T06:38:32;5.57;;;3.30;;
26050;SDS011;13825;53.496;10.020;2023-04-28T06:40:59;5.87;;;3.17;;
26050;SDS011;13825;53.496;10.020;2023-04-28T06:43:29;4.37;;;3.03;;
26050;SDS011;13825;53.496;10.020;2023-04-28T06:46:05;4.63;;;3.40;;
26050;SDS011;13825;53.496;10.020;2023-04-28T06:48:33;5.80;;;3.03;;
26050;SDS011;13825;53.496;10.020;2023-04-28T06:51:04;4.27;;;3.07;;
26050;SDS011;13825;53.496;10.020;2023-04-28T06:53:36;6.10;;;3.17;;
26050;SDS011;13825;53.496;10.020;2023-04-28T06:56:11;4.03;;;2.93;;
26050;SDS011;13825;53.496;10.020;2023-04-28T06:58:54;8.80;;;3.43;;
26050;SDS011;13825;53.496;10.020;2023-04-28T07:01:52;4.40;;;2.83;;
26050;SDS011;13825;53.496;10.020;2023-04-28T07:11:34;3.57;;;2.77;;
26050;SDS011;13825;53.496;10.020;2023-04-28T07:14:32;5.43;;;3.10;;
26050;SDS011;13825;53.496;10.020;2023-04-28T07:17:10;5.13;;;2.90;;
26050;SDS011;13825;53.496;10.020;2023-04-28T07:20:03;4.70;;;2.90;;
26050;SDS011;13825;53.496;10.020;2023-04-28T07:22:54;3.63;;;2.80;;
26050;SDS011;13825;53.496;10.020;2023-04-28T07:25:31;3.03;;;2.73;;
26050;SDS011;13825;53.496;10.020;2023-04-28T07:28:16;4.87;;;2.70;;
26050;SDS011;13825;53.496;10.020;2023-04-28T07:30:49;5.80;;;2.90;;
26050;SDS011;13825;53.496;10.020;2023-04-28T07:33:24;3.57;;;2.50;;
26050;SDS011;13825;53.496;10.020;2023-04-28T07:36:05;5.67;;;2.80;;
26050;SDS011;13825;53.496;10.020;2023-04-28T07:38:53;3.57;;;2.57;;
26050;SDS011;13825;53.496;10.020;2023-04-28T07:47:26;7.23;;;2.63;;
26050;SDS011;13825;53.496;10.020;2023-04-28T07:50:15;5.17;;;2.73;;
26050;SDS011;13825;53.496;10.020;2023-04-28T07:53:07;3.93;;;2.67;;
26050;SDS011;13825;53.496;10.020;2023-04-28T07:55:40;2.97;;;2.50;;
26050;SDS011;13825;53.496;10.020;2023-04-28T07:58:42;3.60;;;2.90;;
26050;SDS011;13825;53.496;10.020;2023-04-28T08:04:57;4.20;;;3.10;;
26050;SDS011;13825;53.496;10.020;2023-04-28T08:07:39;3.60;;;2.73;;
26050;SDS011;13825;53.496;10.020;2023-04-28T08:13:28;4.57;;;3.03;;
26050;SDS011;13825;53.496;10.020;2023-04-28T08:16:15;3.77;;;2.83;;
26050;SDS011;13825;53.496;10.020;2023-04-28T08:36:12;3.97;;;2.90;;
26050;SDS011;13825;53.496;10.020;2023-04-28T08:38:39;3.30;;;2.70;;
26050;SDS011;13825;53.496;10.020;2023-04-28T08:41:06;3.53;;;2.70;;
26050;SDS011;13825;53.496;10.020;2023-04-28T08:43:34;8.43;;;2.70;;
26050;SDS011;13825;53.496;10.020;2023-04-28T08:46:02;5.47;;;3.10;;
26050;SDS011;13825;53.496;10.020;2023-04-28T08:48:31;3.20;;;2.37;;
26050;SDS011;13825;53.496;10.020;2023-04-28T08:51:05;4.10;;;3.10;;
26050;SDS011;13825;53.496;10.020;2023-04-28T08:53:36;4.23;;;3.13;;
26050;SDS011;13825;53.496;10.020;2023-04-28T08:56:04;5.20;;;2.60;;
26050;SDS011;13825;53.496;10.020;2023-04-28T08:58:33;4.83;;;2.83;;
26050;SDS011;13825;53.496;10.020;2023-04-28T09:01:02;3.73;;;2.50;;
26050;SDS011;13825;53.496;10.020;2023-04-28T09:03:29;4.47;;;3.23;;
26050;SDS011;13825;53.496;10.020;2023-04-28T09:05:57;3.77;;;2.67;;
26050;SDS011;13825;53.496;10.020;2023-04-28T09:08:24;4.27;;;2.80;;
26050;SDS011;13825;53.496;10.020;2023-04-28T09:11:05;5.33;;;3.00;;
26050;SDS011;13825;53.496;10.020;2023-04-28T09:13:33;5.70;;;3.47;;
26050;SDS011;13825;53.496;10.020;2023-04-28T09:16:01;3.53;;;3.17;;
26050;SDS011;13825;53.496;10.020;2023-04-28T09:18:28;3.33;;;2.63;;
26050;SDS011;13825;53.496;10.020;2023-04-28T09:21:03;3.83;;;3.00;;
26050;SDS011;13825;53.496;10.020;2023-04-28T09:23:31;4.60;;;3.20;;
26050;SDS011;13825;53.496;10.020;2023-04-28T09:25:59;5.57;;;3.30;;
26050;SDS011;13825;53.496;10.020;2023-04-28T09:28:28;5.07;;;3.33;;
26050;SDS011;13825;53.496;10.020;2023-04-28T09:30:56;5.73;;;3.07;;
26050;SDS011;13825;53.496;10.020;2023-04-28T09:33:23;3.97;;;2.70;;
26050;SDS011;13825;53.496;10.020;2023-04-28T09:35:51;6.13;;;3.13;;
26050;SDS011;13825;53.496;10.020;2023-04-28T09:38:18;4.57;;;2.93;;
26050;SDS011;13825;53.496;10.020;2023-04-28T09:40:53;5.13;;;3.23;;
26050;SDS011;13825;53.496;10.020;2023-04-28T09:43:22;4.63;;;2.87;;
26050;SDS011;13825;53.496;10.020;2023-04-28T09:45:52;4.20;;;3.30;;
26050;SDS011;13825;53.496;10.020;2023-04-28T09:48:25;4.23;;;3.40;;
26050;SDS011;13825;53.496;10.020;2023-04-28T09:50:53;9.23;;;3.87;;
26050;SDS011;13825;53.496;10.020;2023-04-28T09:53:21;8.97;;;3.57;;
26050;SDS011;13825;53.496;10.020;2023-04-28T09:55:50;5.70;;;3.07;;
26050;SDS011;13825;53.496;10.020;2023-04-28T09:58:19;6.77;;;3.60;;
26050;SDS011;13825;53.496;10.020;2023-04-28T10:00:47;5.07;;;3.13;;
26050;SDS011;13825;53.496;10.020;2023-04-28T10:03:18;5.30;;;3.83;;
26050;SDS011;13825;53.496;10.020;2023-04-28T10:05:47;4.47;;;3.33;;
26050;SDS011;13825;53.496;10.020;2023-04-28T10:08:15;5.53;;;3.23;;
26050;SDS011;13825;53.496;10.020;2023-04-28T10:10:43;4.07;;;3.23;;
26050;SDS011;13825;53.496;10.020;2023-04-28T10:13:10;6.33;;;3.50;;
26050;SDS011;13825;53.496;10.020;2023-04-28T10:15:37;5.80;;;3.07;;
26050;SDS011;13825;53.496;10.020;2023-04-28T10:18:05;5.93;;;3.10;;
26050;SDS011;13825;53.496;10.020;2023-04-28T10:20:35;6.40;;;3.00;;
26050;SDS011;13825;53.496;10.020;2023-04-28T10:23:06;3.73;;;3.30;;
26050;SDS011;13825;53.496;10.020;2023-04-28T10:25:51;4.37;;;3.03;;
26050;SDS011;13825;53.496;10.020;2023-04-28T10:28:22;5.00;;;3.47;;
26050;SDS011;13825;53.496;10.020;2023-04-28T10:33:36;5.77;;;3.20;;
26050;SDS011;13825;53.496;10.020;2023-04-28T10:36:04;7.57;;;3.60;;
26050;SDS011;13825;53.496;10.020;2023-04-28T10:38:32;4.53;;;3.23;;
26050;SDS011;13825;53.496;10.020;2023-04-28T10:41:00;5.20;;;3.47;;
26050;SDS011;13825;53.496;10.020;2023-04-28T10:43:32;5.67;;;3.40;;
26050;SDS011;13825;53.496;10.020;2023-04-28T10:46:07;3.50;;;2.83;;
26050;SDS011;13825;53.496;10.020;2023-04-28T10:48:53;4.67;;;3.20;;
26050;SDS011;13825;53.496;10.020;2023-04-28T10:51:25;6.23;;;3.30;;
26050;SDS011;13825;53.496;10.020;2023-04-28T10:59:58;4.73;;;3.13;;
26050;SDS011;13825;53.496;10.020;2023-04-28T11:02:54;4.50;;;3.07;;
26050;SDS011;13825;53.496;10.020;2023-04-28T11:05:22;5.53;;;3.40;;
26050;SDS011;13825;53.496;10.020;2023-04-28T11:11:21;6.20;;;3.67;;
26050;SDS011;13825;53.496;10.020;2023-04-28T11:13:52;8.17;;;3.43;;
26050;SDS011;13825;53.496;10.020;2023-04-28T11:16:21;8.93;;;3.50;;
26050;SDS011;13825;53.496;10.020;2023-04-28T11:18:50;5.50;;;3.30;;
26050;SDS011;13825;53.496;10.020;2023-04-28T11:21:19;4.90;;;3.50;;
26050;SDS011;13825;53.496;10.020;2023-04-28T11:23:47;4.30;;;3.33;;
26050;SDS011;13825;53.496;10.020;2023-04-28T11:26:14;5.37;;;3.40;;
26050;SDS011;13825;53.496;10.020;2023-04-28T11:28:48;5.43;;;3.23;;
26050;SDS011;13825;53.496;10.020;2023-04-28T11:31:16;5.40;;;3.60;;
26050;SDS011;13825;53.496;10.020;2023-04-28T11:33:56;6.87;;;3.50;;
26050;SDS011;13825;53.496;10.020;2023-04-28T11:36:30;7.77;;;3.93;;
26050;SDS011;13825;53.496;10.020;2023-04-28T11:38:59;7.10;;;3.27;;
26050;SDS011;13825;53.496;10.020;2023-04-28T11:41:28;8.47;;;3.53;;
26050;SDS011;13825;53.496;10.020;2023-04-28T11:43:57;6.30;;;3.40;;
26050;SDS011;13825;53.496;10.020;2023-04-28T11:46:24;5.20;;;3.17;;
26050;SDS011;13825;53.496;10.020;2023-04-28T11:49:01;5.57;;;3.73;;
26050;SDS011;13825;53.496;10.020;2023-04-28T11:51:30;7.57;;;3.63;;
26050;SDS011;13825;53.496;10.020;2023-04-28T11:54:02;4.93;;;3.67;;
26050;SDS011;13825;53.496;10.020;2023-04-28T11:56:30;4.90;;;3.50;;
26050;SDS011;13825;53.496;10.020;2023-04-28T12:02:24;6.43;;;3.93;;
26050;SDS011;13825;53.496;10.020;2023-04-28T12:05:21;7.43;;;3.83;;
26050;SDS011;13825;53.496;10.020;2023-04-28T12:08:26;4.97;;;3.50;;
26050;SDS011;13825;53.496;10.020;2023-04-28T12:14:57;7.57;;;3.40;;
26050;SDS011;13825;53.496;10.020;2023-04-28T12:21:18;6.50;;;3.77;;
26050;SDS011;13825;53.496;10.020;2023-04-28T12:24:18;7.57;;;4.00;;
26050;SDS011;13825;53.496;10.020;2023-04-28T12:27:22;6.43;;;3.73;;
26050;SDS011;13825;53.496;10.020;2023-04-28T12:30:28;6.50;;;3.83;;
26050;SDS011;13825;53.496;10.020;2023-04-28T12:33:22;6.37;;;3.50;;
26050;SDS011;13825;53.496;10.020;2023-04-28T12:35:50;7.67;;;4.13;;
26050;SDS011;13825;53.496;10.020;2023-04-28T12:38:20;5.90;;;3.40;;
26050;SDS011;13825;53.496;10.020;2023-04-28T12:40:47;4.63;;;3.57;;
26050;SDS011;13825;53.496;10.020;2023-04-28T12:43:14;7.43;;;4.10;;
26050;SDS011;13825;53.496;10.020;2023-04-28T12:45:40;6.17;;;3.97;;
26050;SDS011;13825;53.496;10.020;2023-04-28T12:48:07;4.90;;;3.77;;
26050;SDS011;13825;53.496;10.020;2023-04-28T12:50:34;6.20;;;3.70;;
26050;SDS011;13825;53.496;10.020;2023-04-28T12:53:01;8.27;;;3.90;;
26050;SDS011;13825;53.496;10.020;2023-04-28T12:55:30;5.47;;;4.00;;
26050;SDS011;13825;53.496;10.020;2023-04-28T12:57:57;7.50;;;3.93;;
26050;SDS011;13825;53.496;10.020;2023-04-28T13:00:24;5.03;;;3.63;;
26050;SDS011;13825;53.496;10.020;2023-04-28T13:02:51;6.17;;;3.57;;
26050;SDS011;13825;53.496;10.020;2023-04-28T13:05:18;6.10;;;4.00;;
26050;SDS011;13825;53.496;10.020;2023-04-28T13:07:45;7.53;;;3.80;;
26050;SDS011;13825;53.496;10.020;2023-04-28T13:10:13;6.33;;;3.73;;
26050;SDS011;13825;53.496;10.020;2023-04-28T13:12:42;4.90;;;4.03;;
26050;SDS011;13825;53.496;10.020;2023-04-28T13:15:15;4.50;;;3.70;;
26050;SDS011;13825;53.496;10.020;2023-04-28T13:17:47;5.27;;;3.87;;
26050;SDS011;13825;53.496;10.020;2023-04-28T13:20:14;6.77;;;4.23;;
26050;SDS011;13825;53.496;10.020;2023-04-28T13:22:42;7.03;;;3.90;;
26050;SDS011;13825;53.496;10.020;2023-04-28T13:25:09;5.00;;;3.80;;
26050;SDS011;13825;53.496;10.020;2023-04-28T13:27:36;6.90;;;4.33;;
26050;SDS011;13825;53.496;10.020;2023-04-28T13:30:08;12.80;;;4.17;;
26050;SDS011;13825;53.496;10.020;2023-04-28T13:32:41;4.57;;;3.60;;
26050;SDS011;13825;53.496;10.020;2023-04-28T13:35:14;9.17;;;4.40;;
26050;SDS011;13825;53.496;10.020;2023-04-28T13:37:41;5.20;;;4.00;;
26050;SDS011;13825;53.496;10.020;2023-04-28T13:40:10;5.27;;;4.07;;
26050;SDS011;13825;53.496;10.020;2023-04-28T13:42:37;7.60;;;4.33;;
26050;SDS011;13825;53.496;10.020;2023-04-28T13:45:06;8.80;;;3.90;;
26050;SDS011;13825;53.496;10.020;2023-04-28T13:47:35;8.60;;;4.20;;
26050;SDS011;13825;53.496;10.020;2023-04-28T13:50:03;4.90;;;3.53;;
26050;SDS011;13825;53.496;10.020;2023-04-28T13:52:30;6.63;;;4.33;;
26050;SDS011;13825;53.496;10.020;2023-04-28T13:54:57;7.07;;;4.27;;
26050;SDS011;13825;53.496;10.020;2023-04-28T13:57:24;6.70;;;4.17;;
26050;SDS011;13825;53.496;10.020;2023-04-28T13:59:51;8.00;;;4.10;;
26050;SDS011;13825;53.496;10.020;2023-04-28T14:02:20;7.33;;;3.90;;
26050;SDS011;13825;53.496;10.020;2023-04-28T14:04:48;8.00;;;4.70;;
26050;SDS011;13825;53.496;10.020;2023-04-28T14:07:16;8.37;;;4.47;;
26050;SDS011;13825;53.496;10.020;2023-04-28T14:09:43;6.83;;;5.03;;
26050;SDS011;13825;53.496;10.020;2023-04-28T14:12:10;7.97;;;4.43;;
26050;SDS011;13825;53.496;10.020;2023-04-28T14:14:39;5.60;;;4.10;;
26050;SDS011;13825;53.496;10.020;2023-04-28T14:17:06;5.53;;;4.60;;
26050;SDS011;13825;53.496;10.020;2023-04-28T14:19:35;7.20;;;4.87;;
26050;SDS011;13825;53.496;10.020;2023-04-28T14:22:02;7.93;;;4.47;;
26050;SDS011;13825;53.496;10.020;2023-04-28T14:24:29;7.10;;;4.10;;
26050;SDS011;13825;53.496;10.020;2023-04-28T14:26:56;11.13;;;4.17;;
26050;SDS011;13825;53.496;10.020;2023-04-28T14:29:23;6.03;;;4.47;;
26050;SDS011;13825;53.496;10.020;2023-04-28T14:31:50;6.13;;;4.20;;
26050;SDS011;13825;53.496;10.020;2023-04-28T14:34:17;10.10;;;4.70;;
26050;SDS011;13825;53.496;10.020;2023-04-28T14:36:49;15.33;;;5.00;;
26050;SDS011;13825;53.496;10.020;2023-04-28T14:39:16;6.03;;;4.47;;
26050;SDS011;13825;53.496;10.020;2023-04-28T14:41:44;8.27;;;4.50;;
26050;SDS011;13825;53.496;10.020;2023-04-28T14:44:11;7.33;;;4.50;;
26050;SDS011;13825;53.496;10.020;2023-04-28T14:46:38;6.47;;;4.53;;
26050;SDS011;13825;53.496;10.020;2023-04-28T14:49:05;8.30;;;4.50;;
26050;SDS011;13825;53.496;10.020;2023-04-28T14:51:34;6.57;;;4.20;;
26050;SDS011;13825;53.496;10.020;2023-04-28T14:54:02;5.30;;;4.20;;
26050;SDS011;13825;53.496;10.020;2023-04-28T14:56:30;9.57;;;5.00;;
26050;SDS011;13825;53.496;10.020;2023-04-28T14:58:57;7.30;;;4.33;;
26050;SDS011;13825;53.496;10.020;2023-04-28T15:01:25;7.03;;;4.50;;
26050;SDS011;13825;53.496;10.020;2023-04-28T15:03:52;7.00;;;4.53;;
26050;SDS011;13825;53.496;10.020;2023-04-28T15:06:20;8.47;;;4.33;;
26050;SDS011;13825;53.496;10.020;2023-04-28T15:08:47;6.83;;;4.23;;
26050;SDS011;13825;53.496;10.020;2023-04-28T15:11:16;10.67;;;4.47;;
26050;SDS011;13825;53.496;10.020;2023-04-28T15:13:43;8.97;;;5.07;;
26050;SDS011;13825;53.496;10.020;2023-04-28T15:16:10;8.60;;;4.73;;
26050;SDS011;13825;53.496;10.020;2023-04-28T15:18:37;8.80;;;4.63;;
26050;SDS011;13825;53.496;10.020;2023-04-28T15:21:04;9.17;;;4.77;;
26050;SDS011;13825;53.496;10.020;2023-04-28T15:23:32;5.27;;;4.00;;
26050;SDS011;13825;53.496;10.020;2023-04-28T15:25:59;8.33;;;4.67;;
26050;SDS011;13825;53.496;10.020;2023-04-28T15:28:28;6.13;;;4.17;;
26050;SDS011;13825;53.496;10.020;2023-04-28T15:30:54;7.30;;;4.57;;
26050;SDS011;13825;53.496;10.020;2023-04-28T15:33:21;7.60;;;4.50;;
26050;SDS011;13825;53.496;10.020;2023-04-28T15:35:48;6.77;;;4.60;;
26050;SDS011;13825;53.496;10.020;2023-04-28T15:38:15;7.10;;;4.27;;
26050;SDS011;13825;53.496;10.020;2023-04-28T15:40:42;10.00;;;4.50;;
26050;SDS011;13825;53.496;10.020;2023-04-28T15:43:09;6.73;;;4.97;;
26050;SDS011;13825;53.496;10.020;2023-04-28T15:45:38;8.03;;;4.97;;